aviador You're here:

KCBM Decoded Metar

COLOMBUS in MS, USA
Report Time2017-05-23 14:38:00
UTC Time2017-05-23 14:46:25
Flight Rules mvfr MVFR
WindCalm
Visibility9999 m
Phenomena:N/A
Clouds:Broken 010 Hf
Broken 015 Hf
Ceiling1,000 ft
Temp21°C (ISA +6)
Dew Point21°C (100% RH)
QNH1008 hPa
Density Alt1,470 ft
Elevation220 ft
Report Wrong Elevation
Raw Report
KCBM 231438Z AUTO 00000KT 10SM BKN010 BKN015 21/21 A2977 RMK AO2
SLP082 $=

Extra information for KCBM:More info

Metar Taf Metar & Taf Last 4 Metars F.Rules Stats Wind Profile Meteogram Temp Stats Airport Information Weather charts Add Link Nearby VenuesMetar ALERT Operation Metar Decoded Social comments

AIRNAV info for KCBM